createdAt,value
2018-06-05T00:00:31.786Z,5.50
2018-06-05T00:03:01.454Z,5.90
2018-06-05T00:05:31.117Z,5.33
2018-06-05T00:08:00.862Z,6.70
2018-06-05T00:10:30.561Z,9.07
2018-06-05T00:13:00.246Z,12.07
2018-06-05T00:15:29.857Z,8.53
2018-06-05T00:17:59.515Z,8.87
2018-06-05T00:20:29.467Z,6.87
2018-06-05T00:22:59.082Z,6.37
2018-06-05T00:25:28.745Z,5.93
2018-06-05T00:27:58.445Z,8.53
2018-06-05T00:30:28.254Z,6.60
2018-06-05T00:32:57.874Z,5.90
2018-06-05T00:35:27.778Z,7.53
2018-06-05T00:37:57.466Z,7.63
2018-06-05T00:40:27.128Z,7.63
2018-06-05T00:42:56.853Z,6.73
2018-06-05T00:45:26.523Z,6.10
2018-06-05T00:47:56.230Z,6.27
2018-06-05T00:50:25.943Z,6.20
2018-06-05T00:52:55.663Z,6.23
2018-06-05T00:55:25.372Z,5.87
2018-06-05T00:57:55.036Z,6.47
2018-06-05T01:00:24.685Z,6.33
2018-06-05T01:02:54.368Z,6.23
2018-06-05T01:05:23.974Z,6.30
2018-06-05T01:07:53.686Z,6.03
2018-06-05T01:10:23.364Z,6.07
2018-06-05T01:12:52.992Z,5.73
2018-06-05T01:15:22.650Z,7.17
2018-06-05T01:17:52.408Z,7.00
2018-06-05T01:20:22.116Z,6.50
2018-06-05T01:22:51.867Z,12.47
2018-06-05T01:25:21.599Z,10.10
2018-06-05T01:27:51.363Z,10.00
2018-06-05T01:30:21.132Z,9.47
2018-06-05T01:32:50.822Z,8.60
2018-06-05T01:35:20.536Z,7.63
2018-06-05T01:37:50.257Z,7.80
2018-06-05T01:40:19.950Z,8.13
2018-06-05T01:42:49.766Z,7.80
2018-06-05T01:45:19.544Z,7.23
2018-06-05T01:47:49.275Z,6.93
2018-06-05T01:50:18.928Z,8.00
2018-06-05T01:52:48.710Z,7.00
2018-06-05T01:55:18.383Z,7.00
2018-06-05T01:57:48.069Z,7.33
2018-06-05T02:00:17.686Z,7.27
2018-06-05T02:02:47.366Z,6.80
2018-06-05T02:05:16.999Z,7.30
2018-06-05T02:07:46.676Z,6.90
2018-06-05T02:10:16.346Z,7.43
2018-06-05T02:12:46.049Z,6.93
2018-06-05T02:15:15.696Z,7.10
2018-06-05T02:17:45.408Z,6.50
2018-06-05T02:20:15.057Z,6.40
2018-06-05T02:22:44.734Z,6.40
2018-06-05T02:25:14.455Z,6.30
2018-06-05T02:27:44.127Z,7.50
2018-06-05T02:30:13.916Z,8.30
2018-06-05T02:32:43.689Z,7.47
2018-06-05T02:35:13.452Z,6.30
2018-06-05T02:37:43.283Z,6.20
2018-06-05T02:40:12.970Z,6.80
2018-06-05T02:42:46.569Z,7.60
2018-06-05T02:45:16.263Z,8.57
2018-06-05T02:47:46.072Z,8.20
2018-06-05T02:50:15.845Z,6.90
2018-06-05T02:52:45.545Z,6.70
2018-06-05T02:55:15.248Z,6.60
2018-06-05T02:57:45.035Z,6.37
2018-06-05T03:00:14.797Z,6.00
2018-06-05T03:02:44.596Z,5.90
2018-06-05T03:05:14.255Z,5.87
2018-06-05T03:07:44.005Z,6.40
2018-06-05T03:10:13.757Z,6.10
2018-06-05T03:12:43.402Z,6.50
2018-06-05T03:15:13.148Z,5.67
2018-06-05T03:17:42.788Z,6.87
2018-06-05T03:20:12.492Z,8.10
2018-06-05T03:22:42.136Z,16.63
2018-06-05T03:25:11.945Z,43.47
2018-06-05T03:27:42.124Z,12.00
2018-06-05T03:30:12.305Z,6.70
2018-06-05T03:32:42.103Z,6.20
2018-06-05T03:35:11.947Z,6.40
2018-06-05T03:37:41.684Z,6.53
2018-06-05T03:40:11.427Z,6.33
2018-06-05T03:42:41.147Z,6.83
2018-06-05T03:45:10.818Z,6.00
2018-06-05T03:47:40.420Z,6.90
2018-06-05T03:50:10.162Z,5.77
2018-06-05T03:52:39.824Z,6.10
2018-06-05T03:55:09.483Z,5.80
2018-06-05T03:57:39.160Z,6.33
2018-06-05T04:00:08.872Z,6.30
2018-06-05T04:02:38.606Z,6.27
2018-06-05T04:05:08.379Z,5.87
2018-06-05T04:07:38.026Z,6.80
2018-06-05T04:10:07.648Z,5.93
2018-06-05T04:12:37.429Z,6.00
2018-06-05T04:15:07.312Z,6.10
2018-06-05T04:17:37.031Z,6.40
2018-06-05T04:20:06.768Z,6.40
2018-06-05T04:22:36.395Z,6.07
2018-06-05T04:25:06.080Z,5.90
2018-06-05T04:27:35.790Z,6.43
2018-06-05T04:30:05.656Z,5.73
2018-06-05T04:32:35.400Z,6.80
2018-06-05T04:35:05.065Z,5.43
2018-06-05T04:37:34.687Z,6.17
2018-06-05T04:40:04.477Z,6.20
2018-06-05T04:42:34.120Z,7.07
2018-06-05T04:45:03.770Z,5.63
2018-06-05T04:47:33.531Z,6.10
2018-06-05T04:50:03.294Z,5.87
2018-06-05T04:52:32.944Z,6.03
2018-06-05T04:55:02.587Z,6.03
2018-06-05T04:57:32.301Z,6.00
2018-06-05T05:00:02.610Z,5.77
2018-06-05T05:02:32.428Z,6.17
2018-06-05T05:05:02.057Z,6.03
2018-06-05T05:07:31.729Z,6.00
2018-06-05T05:10:01.496Z,5.80
2018-06-05T05:12:31.255Z,5.40
2018-06-05T05:15:00.887Z,5.70
2018-06-05T05:17:30.585Z,6.30
2018-06-05T05:20:00.313Z,6.00
2018-06-05T05:22:30.022Z,6.27
2018-06-05T05:24:59.770Z,5.80
2018-06-05T05:27:29.484Z,5.77
2018-06-05T05:29:59.094Z,6.10
2018-06-05T05:32:28.742Z,5.87
2018-06-05T05:34:58.428Z,6.08
2018-06-05T05:37:28.066Z,5.83
2018-06-05T05:39:57.762Z,5.60
2018-06-05T05:42:27.407Z,5.93
2018-06-05T05:45:01.144Z,5.47
2018-06-05T05:47:30.806Z,5.40
2018-06-05T05:50:00.415Z,5.55
2018-06-05T05:52:30.109Z,5.40
2018-06-05T05:54:59.093Z,5.23
2018-06-05T05:57:28.779Z,5.65
2018-06-05T05:59:58.464Z,5.83
2018-06-05T06:02:28.161Z,5.33
2018-06-05T06:04:58.939Z,5.60
2018-06-05T06:07:28.694Z,5.53
2018-06-05T06:09:58.468Z,5.20
2018-06-05T06:12:28.184Z,5.77
2018-06-05T06:14:57.927Z,5.80
2018-06-05T06:17:27.734Z,5.42
2018-06-05T06:19:57.412Z,4.90
2018-06-05T06:22:27.080Z,5.20
2018-06-05T06:24:56.839Z,5.20
2018-06-05T06:27:26.483Z,5.20
2018-06-05T06:29:56.193Z,5.10
2018-06-05T06:32:25.960Z,5.03
2018-06-05T06:34:55.628Z,5.60
2018-06-05T06:37:25.286Z,5.00
2018-06-05T06:39:54.964Z,5.10
2018-06-05T06:42:24.669Z,5.20
2018-06-05T06:44:54.363Z,5.53
2018-06-05T06:47:24.435Z,5.20
2018-06-05T06:49:54.213Z,4.93
2018-06-05T06:52:23.988Z,5.40
2018-06-05T06:54:53.779Z,4.37
2018-06-05T06:57:23.489Z,4.43
2018-06-05T06:59:53.224Z,4.80
2018-06-05T07:02:22.926Z,4.90
2018-06-05T07:04:52.725Z,4.70
2018-06-05T07:07:22.356Z,5.27
2018-06-05T07:09:52.104Z,5.17
2018-06-05T07:12:21.885Z,5.13
2018-06-05T07:14:51.549Z,5.03
2018-06-05T07:17:21.192Z,5.07
2018-06-05T07:19:50.923Z,5.13
2018-06-05T07:22:20.546Z,5.43
2018-06-05T07:24:51.394Z,5.27
2018-06-05T07:27:21.090Z,4.87
2018-06-05T07:29:50.842Z,4.23
2018-06-05T07:32:20.552Z,4.77
2018-06-05T07:34:50.245Z,4.50
2018-06-05T07:37:19.965Z,5.07
2018-06-05T07:39:49.621Z,4.60
2018-06-05T07:42:19.358Z,5.00
2018-06-05T07:44:49.118Z,4.57
2018-06-05T07:47:18.801Z,4.63
2018-06-05T07:49:48.517Z,5.10
2018-06-05T07:52:18.198Z,5.07
2018-06-05T07:54:47.861Z,5.20
2018-06-05T07:57:17.540Z,5.07
2018-06-05T07:59:47.250Z,5.07
2018-06-05T08:02:16.904Z,5.20
2018-06-05T08:04:46.622Z,4.77
2018-06-05T08:07:16.374Z,5.23
2018-06-05T08:09:46.030Z,5.03
2018-06-05T08:12:15.679Z,5.10
2018-06-05T08:14:45.386Z,5.20
2018-06-05T08:17:15.108Z,5.00
2018-06-05T08:19:44.769Z,5.13
2018-06-05T08:22:14.442Z,5.20
2018-06-05T08:24:44.113Z,5.27
2018-06-05T08:27:13.844Z,4.77
2018-06-05T08:29:43.553Z,5.50
2018-06-05T08:32:18.162Z,5.40
2018-06-05T08:34:47.865Z,5.30
2018-06-05T08:37:17.586Z,5.80
2018-06-05T08:39:47.312Z,6.40
2018-06-05T08:42:17.004Z,5.10
2018-06-05T08:44:46.703Z,6.20
2018-06-05T08:47:16.366Z,6.10
2018-06-05T08:49:46.066Z,6.30
2018-06-05T08:52:15.787Z,6.50
2018-06-05T08:54:45.555Z,5.60
2018-06-05T08:57:15.214Z,6.33
2018-06-05T08:59:44.880Z,5.77
2018-06-05T09:02:14.589Z,6.40
2018-06-05T09:04:44.176Z,7.33
2018-06-05T09:07:13.943Z,7.33
2018-06-05T09:09:43.724Z,7.70
2018-06-05T09:12:13.574Z,8.20
2018-06-05T09:14:43.358Z,7.10
2018-06-05T09:17:13.030Z,8.10
2018-06-05T09:19:42.860Z,7.90
2018-06-05T09:22:12.496Z,7.43
2018-06-05T09:24:42.263Z,7.63
2018-06-05T09:27:11.990Z,7.47
2018-06-05T09:29:41.725Z,8.07
2018-06-05T09:32:11.501Z,8.83
2018-06-05T09:34:41.162Z,9.00
2018-06-05T09:37:10.804Z,9.88
2018-06-05T09:39:40.631Z,8.77
2018-06-05T09:42:10.508Z,9.47
2018-06-05T09:44:40.297Z,9.40
2018-06-05T09:47:10.457Z,8.63
2018-06-05T09:49:40.185Z,7.87
2018-06-05T09:52:09.878Z,8.87
2018-06-05T09:54:39.585Z,8.77
2018-06-05T09:57:09.326Z,9.50
2018-06-05T09:59:39.008Z,11.28
2018-06-05T10:02:08.830Z,10.47
2018-06-05T10:04:38.584Z,12.33
2018-06-05T10:07:08.262Z,13.37
2018-06-05T10:09:37.966Z,11.43
2018-06-05T10:12:07.676Z,13.08
2018-06-05T10:14:37.428Z,12.27
2018-06-05T10:17:07.167Z,11.97
2018-06-05T10:19:36.869Z,13.53
2018-06-05T10:22:06.642Z,12.73
2018-06-05T10:24:37.137Z,13.70
2018-06-05T10:27:08.344Z,9.68
2018-06-05T10:29:38.240Z,9.63
2018-06-05T10:32:08.009Z,12.90
2018-06-05T10:34:43.856Z,11.20
2018-06-05T10:37:13.533Z,11.00
2018-06-05T10:39:43.216Z,12.33
2018-06-05T10:42:12.896Z,10.30
2018-06-05T10:44:43.109Z,10.40
2018-06-05T10:47:12.819Z,12.87
2018-06-05T10:49:42.464Z,10.57
2018-06-05T10:52:12.152Z,10.32
2018-06-05T10:54:41.930Z,11.03
2018-06-05T10:57:11.593Z,14.20
2018-06-05T10:59:41.226Z,11.33
2018-06-05T11:02:10.914Z,13.60
2018-06-05T11:04:40.577Z,11.80
2018-06-05T11:07:10.224Z,12.57
2018-06-05T11:09:39.844Z,12.47
2018-06-05T11:12:09.495Z,11.20
2018-06-05T11:14:39.272Z,11.80
2018-06-05T11:17:08.922Z,10.47
2018-06-05T11:19:38.638Z,10.90
2018-06-05T11:22:08.296Z,9.85
2018-06-05T11:24:38.005Z,8.63
2018-06-05T11:27:07.728Z,8.03
2018-06-05T11:29:37.491Z,8.33
2018-06-05T11:32:07.223Z,8.80
2018-06-05T11:34:37.945Z,8.03
2018-06-05T11:37:09.388Z,6.93
2018-06-05T11:39:39.066Z,6.83
2018-06-05T11:42:14.307Z,7.50
2018-06-05T11:45:29.105Z,6.50
2018-06-05T11:55:07.694Z,6.47
2018-06-05T12:00:54.025Z,6.90
2018-06-05T12:03:27.295Z,6.08
2018-06-05T12:12:03.837Z,8.00
2018-06-05T12:14:33.566Z,6.83
2018-06-05T12:17:03.240Z,7.17
2018-06-05T12:19:32.925Z,6.75
2018-06-05T12:22:02.640Z,6.50
2018-06-05T12:24:32.298Z,6.70
2018-06-05T12:27:02.037Z,6.45
2018-06-05T12:29:31.715Z,6.97
2018-06-05T12:32:01.493Z,5.67
2018-06-05T12:34:31.180Z,5.90
2018-06-05T12:37:00.884Z,5.80
2018-06-05T12:39:30.617Z,5.03
2018-06-05T12:42:00.350Z,5.60
2018-06-05T12:44:30.034Z,5.60
2018-06-05T12:47:00.049Z,7.03
2018-06-05T12:49:31.360Z,6.67
2018-06-05T12:52:01.036Z,7.12
2018-06-05T12:54:30.687Z,6.90
2018-06-05T12:57:00.377Z,6.30
2018-06-05T12:59:30.070Z,6.60
2018-06-05T13:01:59.792Z,6.03
2018-06-05T13:04:29.524Z,6.30
2018-06-05T13:06:59.258Z,6.40
2018-06-05T13:09:30.133Z,5.83
2018-06-05T13:11:59.918Z,5.58
2018-06-05T13:14:29.639Z,6.53
2018-06-05T13:16:59.492Z,5.70
2018-06-05T13:19:29.171Z,6.00
2018-06-05T13:21:58.896Z,6.05
2018-06-05T13:24:28.664Z,6.33
2018-06-05T13:27:07.859Z,6.17
2018-06-05T13:29:37.605Z,6.17
2018-06-05T13:32:07.256Z,5.72
2018-06-05T13:34:36.946Z,6.10
2018-06-05T13:37:06.748Z,5.85
2018-06-05T13:39:42.718Z,5.55
2018-06-05T13:42:12.395Z,5.83
2018-06-05T13:44:42.149Z,6.15
2018-06-05T13:47:11.861Z,5.50
2018-06-05T13:49:41.633Z,5.37
2018-06-05T13:52:11.321Z,5.40
2018-06-05T13:54:40.960Z,5.62
2018-06-05T13:57:10.618Z,5.22
2018-06-05T13:59:40.353Z,5.78
2018-06-05T14:02:10.084Z,5.60
2018-06-05T14:04:39.796Z,5.30
2018-06-05T14:07:09.496Z,4.97
2018-06-05T14:09:39.166Z,5.45
2018-06-05T14:12:08.730Z,4.75
2018-06-05T14:14:38.467Z,5.05
2018-06-05T14:17:08.154Z,5.33
2018-06-05T14:19:37.898Z,4.80
2018-06-05T14:22:07.930Z,5.40
2018-06-05T14:24:37.600Z,4.75
2018-06-05T14:27:07.078Z,5.10
2018-06-05T14:29:36.811Z,5.87
2018-06-05T14:32:07.711Z,5.10
2018-06-05T14:34:37.409Z,5.78
2018-06-05T14:37:07.176Z,4.92
2018-06-05T14:39:36.869Z,4.50
2018-06-05T14:42:06.628Z,4.90
2018-06-05T14:44:36.298Z,4.87
2018-06-05T14:47:05.946Z,5.47
2018-06-05T14:49:35.564Z,5.85
2018-06-05T14:52:05.328Z,5.92
2018-06-05T14:54:35.020Z,6.40
2018-06-05T14:57:04.781Z,6.25
2018-06-05T14:59:34.490Z,6.30
2018-06-05T15:02:04.191Z,7.20
2018-06-05T15:04:34.821Z,6.80
2018-06-05T15:07:04.539Z,6.30
2018-06-05T15:09:34.664Z,6.50
2018-06-05T15:12:04.434Z,6.53
2018-06-05T15:14:34.124Z,5.47
2018-06-05T15:17:03.844Z,6.17
2018-06-05T15:19:35.311Z,6.50
2018-06-05T15:22:05.175Z,8.07
2018-06-05T15:24:34.901Z,8.77
2018-06-05T15:27:05.257Z,11.57
2018-06-05T15:29:34.917Z,10.47
2018-06-05T15:32:12.346Z,8.73
2018-06-05T15:34:42.033Z,7.30
2018-06-05T15:37:12.560Z,9.20
2018-06-05T15:39:43.070Z,7.33
2018-06-05T15:42:12.822Z,8.00
2018-06-05T15:44:43.240Z,7.60
2018-06-05T15:47:12.893Z,6.87
2018-06-05T15:49:42.796Z,6.43
2018-06-05T15:52:12.511Z,8.67
2018-06-05T15:54:42.642Z,9.20
2018-06-05T15:57:13.045Z,10.57
2018-06-05T15:59:42.708Z,8.67
2018-06-05T16:02:12.373Z,8.07
2018-06-05T16:04:42.877Z,9.23
2018-06-05T16:07:12.571Z,8.93
2018-06-05T16:09:42.283Z,7.70
2018-06-05T16:12:11.972Z,9.10
2018-06-05T16:14:44.635Z,7.73
2018-06-05T16:17:14.346Z,9.10
2018-06-05T16:19:44.074Z,8.10
2018-06-05T16:22:13.840Z,7.70
2018-06-05T16:24:43.499Z,8.10
2018-06-05T16:27:13.189Z,7.20
2018-06-05T16:29:42.863Z,8.10
2018-06-05T16:32:12.524Z,7.30
2018-06-05T16:34:42.287Z,8.30
2018-06-05T16:37:11.997Z,7.47
2018-06-05T16:39:41.657Z,7.80
2018-06-05T16:42:11.505Z,7.23
2018-06-05T16:44:41.263Z,6.97
2018-06-05T16:47:10.967Z,7.20
2018-06-05T16:49:40.662Z,6.10
2018-06-05T16:52:10.361Z,6.30
2018-06-05T16:54:40.029Z,5.97
2018-06-05T16:57:09.793Z,6.20
2018-06-05T16:59:39.391Z,6.23
2018-06-05T17:02:09.217Z,6.30
2018-06-05T17:04:38.956Z,5.53
2018-06-05T17:07:08.608Z,6.00
2018-06-05T17:09:38.258Z,8.73
2018-06-05T17:12:07.952Z,9.13
2018-06-05T17:14:38.437Z,7.50
2018-06-05T17:17:08.232Z,8.00
2018-06-05T17:19:37.927Z,7.57
2018-06-05T17:22:07.670Z,7.87
2018-06-05T17:24:37.304Z,8.30
2018-06-05T17:27:07.138Z,8.40
2018-06-05T17:29:36.840Z,7.33
2018-06-05T17:32:06.521Z,6.10
2018-06-05T17:34:36.215Z,6.37
2018-06-05T17:37:11.995Z,5.50
2018-06-05T17:39:41.613Z,5.60
2018-06-05T17:42:11.300Z,6.13
2018-06-05T17:44:40.918Z,5.60
2018-06-05T17:47:10.660Z,6.20
2018-06-05T17:49:40.394Z,5.93
2018-06-05T17:52:09.387Z,6.90
2018-06-05T17:54:39.127Z,6.20
2018-06-05T17:57:08.808Z,6.10
2018-06-05T17:59:38.516Z,6.20
2018-06-05T18:02:09.340Z,6.37
2018-06-05T18:04:39.263Z,6.30
2018-06-05T18:07:09.126Z,6.47
2018-06-05T18:09:38.787Z,6.40
2018-06-05T18:12:08.575Z,7.23
2018-06-05T18:14:38.425Z,6.63
2018-06-05T18:17:08.042Z,6.83
2018-06-05T18:19:37.793Z,7.13
2018-06-05T18:22:07.538Z,7.10
2018-06-05T18:24:37.318Z,7.03
2018-06-05T18:27:07.164Z,7.00
2018-06-05T18:29:36.832Z,6.97
2018-06-05T18:32:06.564Z,7.07
2018-06-05T18:34:36.241Z,6.10
2018-06-05T18:37:06.056Z,6.80
2018-06-05T18:39:35.826Z,7.20
2018-06-05T18:42:05.722Z,7.00
2018-06-05T18:44:35.389Z,6.50
2018-06-05T18:47:05.286Z,6.77
2018-06-05T18:49:35.062Z,7.47
2018-06-05T18:52:04.878Z,6.40
2018-06-05T18:54:34.568Z,6.67
2018-06-05T18:57:04.333Z,6.90
2018-06-05T18:59:34.025Z,6.80
2018-06-05T19:02:03.149Z,6.80
2018-06-05T19:04:32.864Z,7.60
2018-06-05T19:07:02.656Z,8.87
2018-06-05T19:11:01.376Z,10.30
2018-06-05T19:13:31.053Z,11.40
2018-06-05T19:16:00.741Z,11.53
2018-06-05T19:18:30.449Z,12.17
2018-06-05T19:21:00.194Z,11.73
2018-06-05T19:23:30.303Z,11.97
2018-06-05T19:25:59.978Z,13.50
2018-06-05T19:28:29.713Z,14.13
2018-06-05T19:30:59.460Z,14.30
2018-06-05T19:33:29.182Z,14.70
2018-06-05T19:35:58.870Z,15.33
2018-06-05T19:38:28.635Z,15.97
2018-06-05T19:40:58.325Z,17.33
2018-06-05T19:43:28.042Z,19.07
2018-06-05T19:45:57.823Z,17.90
2018-06-05T19:48:27.476Z,18.87
2018-06-05T19:50:57.185Z,17.17
2018-06-05T19:53:26.926Z,19.10
2018-06-05T19:55:56.001Z,18.47
2018-06-05T19:58:25.773Z,20.03
2018-06-05T20:00:55.468Z,19.43
2018-06-05T20:03:25.228Z,20.17
2018-06-05T20:05:54.399Z,19.43
2018-06-05T20:08:24.372Z,20.40
2018-06-05T20:10:54.145Z,21.00
2018-06-05T20:13:24.173Z,21.03
2018-06-05T20:15:53.933Z,20.87
2018-06-05T20:18:23.678Z,21.27
2018-06-05T20:20:53.453Z,20.80
2018-06-05T20:23:23.357Z,22.03
2018-06-05T20:25:53.138Z,22.07
2018-06-05T20:28:22.904Z,22.10
2018-06-05T20:30:52.638Z,21.13
2018-06-05T20:33:22.290Z,21.20
2018-06-05T20:35:52.028Z,21.33
2018-06-05T20:38:21.806Z,21.80
2018-06-05T20:40:51.517Z,22.27
2018-06-05T20:43:21.273Z,22.23
2018-06-05T20:45:50.988Z,21.47
2018-06-05T20:48:20.656Z,22.17
2018-06-05T20:50:50.341Z,22.90
2018-06-05T20:53:19.998Z,22.07
2018-06-05T20:55:49.662Z,21.07
2018-06-05T20:58:19.361Z,19.83
2018-06-05T21:00:49.039Z,19.87
2018-06-05T21:03:18.715Z,18.10
2018-06-05T21:05:48.449Z,17.77
2018-06-05T21:08:18.111Z,16.73
2018-06-05T21:10:47.741Z,18.40
2018-06-05T21:13:17.408Z,17.33
2018-06-05T21:15:47.026Z,15.23
2018-06-05T21:18:16.643Z,13.63
2018-06-05T21:20:46.458Z,15.90
2018-06-05T21:23:16.170Z,16.97
2018-06-05T21:25:45.943Z,16.07
2018-06-05T21:28:15.678Z,14.30
2018-06-05T21:30:45.320Z,10.80
2018-06-05T21:33:15.033Z,9.50
2018-06-05T21:35:44.740Z,10.37
2018-06-05T21:38:14.438Z,9.13
2018-06-05T21:40:44.183Z,8.70
2018-06-05T21:43:13.876Z,8.00
2018-06-05T21:45:43.547Z,6.80
2018-06-05T21:48:13.299Z,6.50
2018-06-05T21:50:43.042Z,6.50
2018-06-05T21:53:12.730Z,5.93
2018-06-05T21:55:42.440Z,6.20
2018-06-05T21:58:12.212Z,6.00
2018-06-05T22:00:41.883Z,6.10
2018-06-05T22:03:11.577Z,6.33
2018-06-05T22:05:41.217Z,8.40
2018-06-05T22:08:10.872Z,10.53
2018-06-05T22:10:40.625Z,10.67
2018-06-05T22:13:10.305Z,10.87
2018-06-05T22:15:39.943Z,10.30
2018-06-05T22:18:09.618Z,9.67
2018-06-05T22:20:39.252Z,10.13
2018-06-05T22:23:08.915Z,8.57
2018-06-05T22:25:38.572Z,6.97
2018-06-05T22:28:08.226Z,6.83
2018-06-05T22:30:37.877Z,6.70
2018-06-05T22:33:07.561Z,7.13
2018-06-05T22:35:37.215Z,6.87
2018-06-05T22:38:06.875Z,8.13
2018-06-05T22:40:36.541Z,8.97
2018-06-05T22:43:06.187Z,8.70
2018-06-05T22:45:35.805Z,9.30
2018-06-05T22:48:05.598Z,9.37
2018-06-05T22:50:35.249Z,7.80
2018-06-05T22:53:04.977Z,8.07
2018-06-05T22:55:34.669Z,7.57
2018-06-05T22:58:04.318Z,8.10
2018-06-05T23:00:34.813Z,6.93
2018-06-05T23:03:03.827Z,6.30
2018-06-05T23:05:33.426Z,6.40
2018-06-05T23:08:03.043Z,5.50
2018-06-05T23:10:32.697Z,5.57
2018-06-05T23:13:02.349Z,6.00
2018-06-05T23:15:31.998Z,5.23
2018-06-05T23:18:01.638Z,5.70
2018-06-05T23:20:31.282Z,5.50
2018-06-05T23:23:00.954Z,5.47
2018-06-05T23:25:30.589Z,5.53
2018-06-05T23:28:00.270Z,5.37
2018-06-05T23:30:29.900Z,5.17
2018-06-05T23:32:59.516Z,5.87
2018-06-05T23:35:29.294Z,5.33
2018-06-05T23:37:58.904Z,4.70
2018-06-05T23:40:28.611Z,5.10
2018-06-05T23:42:58.338Z,4.93
2018-06-05T23:45:27.973Z,4.83
2018-06-05T23:47:57.656Z,5.17
2018-06-05T23:50:27.631Z,4.90
2018-06-05T23:52:57.364Z,5.00
2018-06-05T23:55:27.124Z,5.17
2018-06-05T23:57:56.766Z,5.13
